createdAt,value
2022-10-08T00:01:36.455Z,51.66
2022-10-08T00:04:08.706Z,51.69
2022-10-08T00:06:40.938Z,51.76
2022-10-08T00:09:13.110Z,51.69
2022-10-08T00:11:45.300Z,51.82
2022-10-08T00:14:17.536Z,51.90
2022-10-08T00:16:49.712Z,51.76
2022-10-08T00:19:21.898Z,51.92
2022-10-08T00:21:57.109Z,51.80
2022-10-08T00:24:29.236Z,51.95
2022-10-08T00:27:01.482Z,52.06
2022-10-08T00:29:33.933Z,52.03
2022-10-08T00:32:07.209Z,52.07
2022-10-08T00:34:40.091Z,52.32
2022-10-08T00:37:12.386Z,52.43
2022-10-08T00:39:44.692Z,52.50
2022-10-08T00:42:16.892Z,52.63
2022-10-08T00:44:58.529Z,52.61
2022-10-08T00:47:43.969Z,52.61
2022-10-08T00:50:22.548Z,52.72
2022-10-08T00:52:57.541Z,52.79
2022-10-08T00:55:31.284Z,52.81
2022-10-08T00:58:08.609Z,52.88
2022-10-08T01:00:40.942Z,53.06
2022-10-08T01:03:13.237Z,53.13
2022-10-08T01:05:51.802Z,53.16
2022-10-08T01:08:32.936Z,53.36
2022-10-08T01:11:12.479Z,53.29
2022-10-08T01:13:50.452Z,53.41
2022-10-08T01:16:33.211Z,53.51
2022-10-08T01:19:22.970Z,53.58
2022-10-08T01:22:08.457Z,53.66
2022-10-08T01:25:06.986Z,53.76
2022-10-08T01:27:43.840Z,53.80
2022-10-08T01:30:19.480Z,53.93
2022-10-08T01:32:56.397Z,54.10
2022-10-08T01:35:33.918Z,54.12
2022-10-08T01:38:10.012Z,54.17
2022-10-08T01:40:45.855Z,54.24
2022-10-08T01:43:22.341Z,54.25
2022-10-08T01:45:59.579Z,54.36
2022-10-08T01:48:35.980Z,54.43
2022-10-08T01:51:12.969Z,54.52
2022-10-08T01:53:48.820Z,54.63
2022-10-08T01:56:24.562Z,54.61
2022-10-08T01:58:57.547Z,54.72
2022-10-08T02:01:36.095Z,54.85
2022-10-08T02:04:25.704Z,54.87
2022-10-08T02:07:01.496Z,54.89
2022-10-08T02:09:33.668Z,54.97
2022-10-08T02:12:06.863Z,55.19
2022-10-08T02:14:42.192Z,55.25
2022-10-08T02:17:25.631Z,55.23
2022-10-08T02:20:01.920Z,55.26
2022-10-08T02:22:39.440Z,55.42
2022-10-08T02:25:17.889Z,55.54
2022-10-08T02:27:57.957Z,55.71
2022-10-08T02:30:38.623Z,55.82
2022-10-08T02:33:16.527Z,55.91
2022-10-08T02:35:52.476Z,55.80
2022-10-08T02:38:32.731Z,55.88
2022-10-08T02:41:07.978Z,55.98
2022-10-08T02:43:45.644Z,55.95
2022-10-08T02:46:21.532Z,56.11
2022-10-08T02:49:01.892Z,56.00
2022-10-08T02:51:37.528Z,56.19
2022-10-08T02:54:08.743Z,56.28
2022-10-08T02:56:46.855Z,56.26
2022-10-08T02:59:20.900Z,56.28
2022-10-08T03:01:58.531Z,56.26
2022-10-08T03:04:34.248Z,56.31
2022-10-08T03:07:07.952Z,56.39
2022-10-08T03:09:43.977Z,56.44
2022-10-08T03:12:16.403Z,56.46
2022-10-08T03:14:52.452Z,56.54
2022-10-08T03:17:30.672Z,56.66
2022-10-08T03:20:04.376Z,56.62
2022-10-08T03:22:37.137Z,56.69
2022-10-08T03:25:10.115Z,56.80
2022-10-08T03:27:42.259Z,56.86
2022-10-08T03:30:16.208Z,56.88
2022-10-08T03:32:48.519Z,56.91
2022-10-08T03:35:21.264Z,56.99
2022-10-08T03:37:54.776Z,57.02
2022-10-08T03:40:27.008Z,57.22
2022-10-08T03:42:59.188Z,57.20
2022-10-08T03:45:31.447Z,57.28
2022-10-08T03:48:03.675Z,57.24
2022-10-08T03:50:35.893Z,57.28
2022-10-08T03:53:08.013Z,57.33
2022-10-08T03:55:40.175Z,57.45
2022-10-08T03:58:12.340Z,57.54
2022-10-08T04:00:45.360Z,57.56
2022-10-08T04:03:17.552Z,57.61
2022-10-08T04:05:52.974Z,57.73
2022-10-08T04:08:25.493Z,57.67
2022-10-08T04:10:57.680Z,57.71
2022-10-08T04:13:29.837Z,57.86
2022-10-08T04:16:06.782Z,57.97
2022-10-08T04:18:39.522Z,57.99
2022-10-08T04:21:13.379Z,58.15
2022-10-08T04:23:46.835Z,58.19
2022-10-08T04:26:19.078Z,58.21
2022-10-08T04:28:52.984Z,58.18
2022-10-08T04:31:25.433Z,58.27
2022-10-08T04:33:57.761Z,58.27
2022-10-08T04:36:30.019Z,58.32
2022-10-08T04:39:02.228Z,58.38
2022-10-08T04:41:34.513Z,58.26
2022-10-08T04:44:06.767Z,58.34
2022-10-08T04:46:39.022Z,58.41
2022-10-08T04:49:12.178Z,58.45
2022-10-08T04:51:44.462Z,58.43
2022-10-08T04:54:16.671Z,58.53
2022-10-08T04:56:49.043Z,58.54
2022-10-08T04:59:21.214Z,58.58
2022-10-08T05:01:57.024Z,58.71
2022-10-08T05:04:29.540Z,58.57
2022-10-08T05:07:02.021Z,58.61
2022-10-08T05:09:34.258Z,58.69
2022-10-08T05:12:06.760Z,58.72
2022-10-08T05:14:38.977Z,58.75
2022-10-08T05:17:11.153Z,58.70
2022-10-08T05:19:43.328Z,58.69
2022-10-08T05:22:15.663Z,58.75
2022-10-08T05:24:47.859Z,58.76
2022-10-08T05:27:20.088Z,58.73
2022-10-08T05:29:52.429Z,58.79
2022-10-08T05:32:24.620Z,58.73
2022-10-08T05:34:56.963Z,58.71
2022-10-08T05:37:29.095Z,58.86
2022-10-08T05:40:01.297Z,58.63
2022-10-08T05:42:33.544Z,58.49
2022-10-08T05:45:06.887Z,58.13
2022-10-08T05:47:39.076Z,57.98
2022-10-08T05:50:12.319Z,57.69
2022-10-08T05:52:44.836Z,57.47
2022-10-08T05:55:17.581Z,57.28
2022-10-08T05:57:49.780Z,56.71
2022-10-08T06:00:22.073Z,56.60
2022-10-08T06:02:54.283Z,56.31
2022-10-08T06:05:26.597Z,56.14
2022-10-08T06:08:00.108Z,55.53
2022-10-08T06:10:34.005Z,55.40
2022-10-08T06:13:06.193Z,54.93
2022-10-08T06:15:38.421Z,54.80
2022-10-08T06:18:10.643Z,54.25
2022-10-08T06:20:42.808Z,53.92
2022-10-08T06:23:15.042Z,53.81
2022-10-08T06:25:47.338Z,53.48
2022-10-08T06:28:19.610Z,53.05
2022-10-08T06:30:51.881Z,52.76
2022-10-08T06:33:24.100Z,52.45
2022-10-08T06:35:56.944Z,52.02
2022-10-08T06:38:29.247Z,51.84
2022-10-08T06:41:02.164Z,51.45
2022-10-08T06:43:34.412Z,51.17
2022-10-08T06:46:08.734Z,50.62
2022-10-08T06:48:41.021Z,50.52
2022-10-08T06:51:17.265Z,50.17
2022-10-08T06:53:55.396Z,49.70
2022-10-08T06:56:28.283Z,49.57
2022-10-08T06:59:00.952Z,49.22
2022-10-08T07:01:34.283Z,48.89
2022-10-08T07:04:07.541Z,48.61
2022-10-08T07:06:39.835Z,48.26
2022-10-08T07:09:13.623Z,48.00
2022-10-08T07:11:45.884Z,47.80
2022-10-08T07:14:18.225Z,47.46
2022-10-08T07:16:50.405Z,47.16
2022-10-08T07:19:22.814Z,47.14
2022-10-08T07:21:59.030Z,46.87
2022-10-08T07:24:33.398Z,46.25
2022-10-08T07:27:05.581Z,46.25
2022-10-08T07:29:37.972Z,46.21
2022-10-08T07:32:10.504Z,45.75
2022-10-08T07:34:42.659Z,45.53
2022-10-08T07:37:14.814Z,45.64
2022-10-08T07:39:46.988Z,45.36
2022-10-08T07:42:19.144Z,45.18
2022-10-08T07:44:51.462Z,44.51
2022-10-08T07:47:23.695Z,44.51
2022-10-08T07:49:55.862Z,44.05
2022-10-08T07:52:28.029Z,43.89
2022-10-08T07:55:00.231Z,43.69
2022-10-08T07:57:32.576Z,43.71
2022-10-08T08:00:05.247Z,43.40
2022-10-08T08:02:37.910Z,43.16
2022-10-08T08:05:10.970Z,42.89
2022-10-08T08:07:43.168Z,42.57
2022-10-08T08:10:15.431Z,42.38
2022-10-08T08:12:47.898Z,42.09
2022-10-08T08:15:21.276Z,41.74
2022-10-08T08:17:53.408Z,41.68
2022-10-08T08:20:25.616Z,41.41
2022-10-08T08:22:57.763Z,41.22
2022-10-08T08:25:29.900Z,40.98
2022-10-08T08:28:02.216Z,40.76
2022-10-08T08:30:34.600Z,40.44
2022-10-08T08:33:07.059Z,40.30
2022-10-08T08:35:39.221Z,40.23
2022-10-08T08:38:11.389Z,39.89
2022-10-08T08:40:43.918Z,39.66
2022-10-08T08:43:16.335Z,39.60
2022-10-08T08:45:49.938Z,39.65
2022-10-08T08:48:25.199Z,39.37
2022-10-08T08:50:59.603Z,39.14
2022-10-08T08:53:32.389Z,38.96
2022-10-08T08:56:09.417Z,38.57
2022-10-08T08:58:50.188Z,38.32
2022-10-08T09:01:32.016Z,38.32
2022-10-08T09:04:11.127Z,38.12
2022-10-08T09:06:44.505Z,38.02
2022-10-08T09:09:26.764Z,37.41
2022-10-08T09:11:59.387Z,37.54
2022-10-08T09:14:36.259Z,37.60
2022-10-08T09:17:16.430Z,37.33
2022-10-08T09:19:50.308Z,37.15
2022-10-08T09:22:25.767Z,36.90
2022-10-08T09:25:02.528Z,36.79
2022-10-08T09:27:52.400Z,36.63
2022-10-08T09:30:34.231Z,36.45
2022-10-08T09:33:18.852Z,36.11
2022-10-08T09:35:53.685Z,35.83
2022-10-08T09:38:27.504Z,35.65
2022-10-08T09:41:08.660Z,35.24
2022-10-08T09:43:40.755Z,34.91
2022-10-08T09:46:31.569Z,35.00
2022-10-08T09:49:27.588Z,34.84
2022-10-08T09:52:01.844Z,34.86
2022-10-08T09:54:38.677Z,34.46
2022-10-08T09:57:16.364Z,34.60
2022-10-08T09:59:55.014Z,34.19
2022-10-08T10:02:35.372Z,34.34
2022-10-08T10:05:19.398Z,34.25
2022-10-08T10:07:52.078Z,34.07
2022-10-08T10:10:30.103Z,33.93
2022-10-08T10:13:07.931Z,33.73
2022-10-08T10:15:44.861Z,33.67
2022-10-08T10:18:20.824Z,33.24
2022-10-08T10:20:56.787Z,33.06
2022-10-08T10:23:35.090Z,33.11
2022-10-08T10:26:13.352Z,33.20
2022-10-08T10:28:48.808Z,33.14
2022-10-08T10:31:26.153Z,33.07
2022-10-08T10:34:01.775Z,32.86
2022-10-08T10:36:36.503Z,32.70
2022-10-08T10:39:15.534Z,32.34
2022-10-08T10:41:52.105Z,32.52
2022-10-08T10:44:28.481Z,32.11
2022-10-08T10:47:03.153Z,32.04
2022-10-08T10:49:38.420Z,31.98
2022-10-08T10:52:17.960Z,31.79
2022-10-08T10:55:04.049Z,31.55
2022-10-08T10:57:51.764Z,31.48
2022-10-08T11:00:27.758Z,31.41
2022-10-08T11:03:04.588Z,31.29
2022-10-08T11:05:39.986Z,30.90
2022-10-08T11:08:32.425Z,31.12
2022-10-08T11:11:18.976Z,31.23
2022-10-08T11:14:10.876Z,31.16
2022-10-08T11:16:59.316Z,31.24
2022-10-08T11:19:44.285Z,31.10
2022-10-08T11:22:26.229Z,31.03
2022-10-08T11:25:12.161Z,30.83
2022-10-08T11:27:53.945Z,31.12
2022-10-08T11:30:33.299Z,31.29
2022-10-08T11:33:06.989Z,31.37
2022-10-08T11:35:45.112Z,31.48
2022-10-08T11:38:25.884Z,31.31
2022-10-08T11:41:04.272Z,31.60
2022-10-08T11:43:44.772Z,31.51
2022-10-08T11:46:28.912Z,31.41
2022-10-08T11:49:03.527Z,31.38
2022-10-08T11:51:39.035Z,31.31
2022-10-08T11:54:31.225Z,31.21
2022-10-08T11:57:22.512Z,31.46
2022-10-08T12:00:08.027Z,31.61
2022-10-08T12:02:43.223Z,31.40
2022-10-08T12:05:38.670Z,31.42
2022-10-08T12:08:11.006Z,31.61
2022-10-08T12:10:43.267Z,31.42
2022-10-08T12:13:32.496Z,31.61
2022-10-08T12:16:08.371Z,31.48
2022-10-08T12:18:49.415Z,31.63
2022-10-08T12:21:52.471Z,31.65
2022-10-08T12:24:54.387Z,31.69
2022-10-08T12:27:33.064Z,31.80
2022-10-08T12:30:09.124Z,32.01
2022-10-08T12:33:00.024Z,31.98
2022-10-08T12:35:38.560Z,31.94
2022-10-08T12:38:35.581Z,31.94
2022-10-08T12:41:20.444Z,32.03
2022-10-08T12:43:59.209Z,31.93
2022-10-08T12:46:41.292Z,31.93
2022-10-08T12:49:23.514Z,31.97
2022-10-08T12:52:02.969Z,32.12
2022-10-08T12:54:35.789Z,32.49
2022-10-08T12:57:14.016Z,32.49
2022-10-08T12:59:46.628Z,32.47
2022-10-08T13:02:38.390Z,32.43
2022-10-08T13:05:29.748Z,32.79
2022-10-08T13:08:18.491Z,32.88
2022-10-08T13:10:50.641Z,32.75
2022-10-08T13:13:49.110Z,32.88
2022-10-08T13:16:23.769Z,33.10
2022-10-08T13:18:58.787Z,33.04
2022-10-08T13:21:39.943Z,33.11
2022-10-08T13:24:33.963Z,33.05
2022-10-08T13:27:08.018Z,33.21
2022-10-08T13:29:40.315Z,33.13
2022-10-08T13:32:22.936Z,33.31
2022-10-08T13:34:58.513Z,33.35
2022-10-08T13:37:34.995Z,33.38
2022-10-08T13:40:19.660Z,33.40
2022-10-08T13:42:54.552Z,33.48
2022-10-08T13:45:30.541Z,33.60
2022-10-08T13:48:02.682Z,33.59
2022-10-08T13:50:35.094Z,33.57
2022-10-08T13:53:07.882Z,33.66
2022-10-08T13:55:42.176Z,33.65
2022-10-08T13:58:16.172Z,33.65
2022-10-08T14:00:49.488Z,33.71
2022-10-08T14:03:21.764Z,33.81
2022-10-08T14:05:53.974Z,33.82
2022-10-08T14:08:28.802Z,34.02
2022-10-08T14:11:01.487Z,33.96
2022-10-08T14:13:33.765Z,33.90
2022-10-08T14:16:06.040Z,33.91
2022-10-08T14:18:38.276Z,33.91
2022-10-08T14:21:11.736Z,34.15
2022-10-08T14:23:44.375Z,34.10
2022-10-08T14:26:16.539Z,33.97
2022-10-08T14:28:48.787Z,34.12
2022-10-08T14:31:21.185Z,34.17
2022-10-08T14:33:53.390Z,34.40
2022-10-08T14:36:29.444Z,34.27
2022-10-08T14:39:01.607Z,34.27
2022-10-08T14:41:34.325Z,34.32
2022-10-08T14:44:06.867Z,34.43
2022-10-08T14:46:39.045Z,34.24
2022-10-08T14:49:11.443Z,34.35
2022-10-08T14:51:43.735Z,34.62
2022-10-08T14:54:15.926Z,34.81
2022-10-08T14:56:48.960Z,34.97
2022-10-08T14:59:22.061Z,35.18
2022-10-08T15:01:54.309Z,35.11
2022-10-08T15:04:26.528Z,35.42
2022-10-08T15:06:58.761Z,35.67
2022-10-08T15:09:31.588Z,35.79
2022-10-08T15:12:03.799Z,35.95
2022-10-08T15:14:38.325Z,36.07
2022-10-08T15:17:10.908Z,36.34
2022-10-08T15:19:43.124Z,36.45
2022-10-08T15:22:15.243Z,36.60
2022-10-08T15:24:47.452Z,36.59
2022-10-08T15:27:21.017Z,36.64
2022-10-08T15:29:53.336Z,36.91
2022-10-08T15:32:28.357Z,37.04
2022-10-08T15:35:02.588Z,37.23
2022-10-08T15:37:35.068Z,37.18
2022-10-08T15:40:08.307Z,37.42
2022-10-08T15:42:40.468Z,37.54
2022-10-08T15:45:12.926Z,37.72
2022-10-08T15:47:45.273Z,37.92
2022-10-08T15:50:17.556Z,38.04
2022-10-08T15:52:49.983Z,37.97
2022-10-08T15:55:22.312Z,38.08
2022-10-08T15:57:54.488Z,38.31
2022-10-08T16:00:26.973Z,38.42
2022-10-08T16:02:59.845Z,38.46
2022-10-08T16:05:32.008Z,38.54
2022-10-08T16:08:06.132Z,38.71
2022-10-08T16:10:39.860Z,38.81
2022-10-08T16:13:12.066Z,39.08
2022-10-08T16:15:44.253Z,39.09
2022-10-08T16:18:17.157Z,39.35
2022-10-08T16:20:52.617Z,39.65
2022-10-08T16:23:25.199Z,39.69
2022-10-08T16:25:57.553Z,39.67
2022-10-08T16:28:32.097Z,39.81
2022-10-08T16:31:05.004Z,39.92
2022-10-08T16:33:37.448Z,40.03
2022-10-08T16:36:10.984Z,40.11
2022-10-08T16:38:43.709Z,40.25
2022-10-08T16:41:20.984Z,40.40
2022-10-08T16:43:55.830Z,40.35
2022-10-08T16:46:30.315Z,40.62
2022-10-08T16:49:04.052Z,40.84
2022-10-08T16:51:38.021Z,40.70
2022-10-08T16:54:12.607Z,40.90
2022-10-08T16:56:46.412Z,41.22
2022-10-08T16:59:20.753Z,41.30
2022-10-08T17:01:55.446Z,41.29
2022-10-08T17:04:30.155Z,41.26
2022-10-08T17:07:02.537Z,41.56
2022-10-08T17:09:34.732Z,41.55
2022-10-08T17:12:06.976Z,41.81
2022-10-08T17:14:39.953Z,42.00
2022-10-08T17:17:12.230Z,42.16
2022-10-08T17:19:44.999Z,42.21
2022-10-08T17:22:17.171Z,42.35
2022-10-08T17:24:49.737Z,42.41
2022-10-08T17:27:21.979Z,42.44
2022-10-08T17:29:54.200Z,42.79
2022-10-08T17:32:26.412Z,42.52
2022-10-08T17:34:58.608Z,42.70
2022-10-08T17:37:30.788Z,42.75
2022-10-08T17:40:02.945Z,43.04
2022-10-08T17:42:35.162Z,43.09
2022-10-08T17:45:08.205Z,43.26
2022-10-08T17:47:40.582Z,43.31
2022-10-08T17:50:13.006Z,43.23
2022-10-08T17:52:45.525Z,43.53
2022-10-08T17:55:19.626Z,43.77
2022-10-08T17:57:51.990Z,43.75
2022-10-08T18:00:25.864Z,43.75
2022-10-08T18:02:58.198Z,44.10
2022-10-08T18:05:30.389Z,44.10
2022-10-08T18:08:02.567Z,44.15
2022-10-08T18:10:38.088Z,44.20
2022-10-08T18:13:10.300Z,44.43
2022-10-08T18:15:42.492Z,44.68
2022-10-08T18:18:14.784Z,44.69
2022-10-08T18:20:57.623Z,44.86
2022-10-08T18:23:31.103Z,44.97
2022-10-08T18:26:17.460Z,44.95
2022-10-08T18:28:51.739Z,45.27
2022-10-08T18:31:25.493Z,45.25
2022-10-08T18:34:00.552Z,45.30
2022-10-08T18:36:34.588Z,45.48
2022-10-08T18:39:08.805Z,45.51
2022-10-08T18:41:43.101Z,45.59
2022-10-08T18:44:17.743Z,45.55
2022-10-08T18:46:50.720Z,45.69
2022-10-08T18:49:30.310Z,45.89
2022-10-08T18:52:03.348Z,45.88
2022-10-08T18:54:35.499Z,46.16
2022-10-08T18:57:07.892Z,46.13
2022-10-08T18:59:40.068Z,46.18
2022-10-08T19:02:13.494Z,46.30
2022-10-08T19:04:45.851Z,46.50
2022-10-08T19:07:18.431Z,46.29
2022-10-08T19:09:50.594Z,46.43
2022-10-08T19:12:23.070Z,46.86
2022-10-08T19:14:55.380Z,46.58
2022-10-08T19:17:27.598Z,46.81
2022-10-08T19:19:59.787Z,47.25
2022-10-08T19:22:32.013Z,47.28
2022-10-08T19:25:04.280Z,47.29
2022-10-08T19:27:36.435Z,47.55
2022-10-08T19:30:10.030Z,47.55
2022-10-08T19:32:42.233Z,47.80
2022-10-08T19:35:14.855Z,47.89
2022-10-08T19:37:47.526Z,48.11
2022-10-08T19:40:19.770Z,48.22
2022-10-08T19:42:52.080Z,48.48
2022-10-08T19:45:24.370Z,48.46
2022-10-08T19:47:56.541Z,48.54
2022-10-08T19:50:28.795Z,48.64
2022-10-08T19:53:01.280Z,48.86
2022-10-08T19:55:37.900Z,48.85
2022-10-08T19:58:10.076Z,49.05
2022-10-08T20:00:42.432Z,49.07
2022-10-08T20:03:14.686Z,49.23
2022-10-08T20:05:47.286Z,49.11
2022-10-08T20:08:19.455Z,49.27
2022-10-08T20:10:51.760Z,49.20
2022-10-08T20:13:24.010Z,49.29
2022-10-08T20:15:56.227Z,49.37
2022-10-08T20:18:28.447Z,49.65
2022-10-08T20:21:05.996Z,49.63
2022-10-08T20:23:39.739Z,49.55
2022-10-08T20:26:15.418Z,49.74
2022-10-08T20:28:49.376Z,49.85
2022-10-08T20:31:23.655Z,50.00
2022-10-08T20:34:00.985Z,49.93
2022-10-08T20:36:34.280Z,50.00
2022-10-08T20:39:07.276Z,49.86
2022-10-08T20:41:39.485Z,50.20
2022-10-08T20:44:11.758Z,50.05
2022-10-08T20:46:44.029Z,50.19
2022-10-08T20:49:16.922Z,50.20
2022-10-08T20:51:49.241Z,50.37
2022-10-08T20:54:21.416Z,50.37
2022-10-08T20:56:53.578Z,50.47
2022-10-08T20:59:26.143Z,50.57
2022-10-08T21:01:58.454Z,50.70
2022-10-08T21:04:30.693Z,50.47
2022-10-08T21:07:02.891Z,50.33
2022-10-08T21:09:35.309Z,50.70
2022-10-08T21:12:07.613Z,50.70
2022-10-08T21:14:39.739Z,50.67
2022-10-08T21:17:11.936Z,50.93
2022-10-08T21:19:45.410Z,50.65
2022-10-08T21:22:17.702Z,50.88
2022-10-08T21:24:50.023Z,51.16
2022-10-08T21:27:22.288Z,51.07
2022-10-08T21:29:54.559Z,51.11
2022-10-08T21:32:26.740Z,51.27
2022-10-08T21:34:58.942Z,51.27
2022-10-08T21:37:31.141Z,51.41
2022-10-08T21:40:04.066Z,51.44
2022-10-08T21:42:36.220Z,51.32
2022-10-08T21:45:09.811Z,51.36
2022-10-08T21:47:41.979Z,51.68
2022-10-08T21:50:14.203Z,51.62
2022-10-08T21:52:46.671Z,51.47
2022-10-08T21:55:19.277Z,51.52
2022-10-08T21:57:51.493Z,51.62
2022-10-08T22:00:35.186Z,51.76
2022-10-08T22:03:07.432Z,51.97
2022-10-08T22:05:39.641Z,51.84
2022-10-08T22:08:11.845Z,51.94
2022-10-08T22:10:44.104Z,51.84
2022-10-08T22:13:16.615Z,51.97
2022-10-08T22:15:57.231Z,52.02
2022-10-08T22:18:31.603Z,52.07
2022-10-08T22:21:06.341Z,52.09
2022-10-08T22:23:38.976Z,52.22
2022-10-08T22:26:13.888Z,52.06
2022-10-08T22:28:46.877Z,52.09
2022-10-08T22:31:21.213Z,52.23
2022-10-08T22:33:53.926Z,52.25
2022-10-08T22:36:27.424Z,52.24
2022-10-08T22:39:00.519Z,52.29
2022-10-08T22:41:34.508Z,52.36
2022-10-08T22:44:07.823Z,52.53
2022-10-08T22:46:41.536Z,52.50
2022-10-08T22:49:14.635Z,52.49
2022-10-08T22:51:46.794Z,52.58
2022-10-08T22:54:19.261Z,52.52
2022-10-08T22:56:51.404Z,52.49
2022-10-08T22:59:23.733Z,52.54
2022-10-08T23:01:55.961Z,52.58
2022-10-08T23:04:28.432Z,52.57
2022-10-08T23:07:00.556Z,52.75
2022-10-08T23:09:32.727Z,52.85
2022-10-08T23:12:05.128Z,52.89
2022-10-08T23:14:37.317Z,52.95
2022-10-08T23:17:09.507Z,53.04
2022-10-08T23:19:41.688Z,52.97
2022-10-08T23:22:14.041Z,53.16
2022-10-08T23:24:46.368Z,53.29
2022-10-08T23:27:18.612Z,53.26
2022-10-08T23:29:50.821Z,53.35
2022-10-08T23:32:23.419Z,53.40
2022-10-08T23:34:56.173Z,53.54
2022-10-08T23:37:28.313Z,53.62
2022-10-08T23:40:00.503Z,53.68
2022-10-08T23:42:32.761Z,53.72
2022-10-08T23:45:05.097Z,53.73
2022-10-08T23:47:37.440Z,53.75
2022-10-08T23:50:11.019Z,53.90
2022-10-08T23:52:43.281Z,54.59
2022-10-08T23:55:15.550Z,54.75
2022-10-08T23:57:47.816Z,54.86
